Terminal Aerodrome Forecast
Issued by NWS

Home | Current Version | Previous Version | Text Only | Print | Product List | Glossary On
Versions: 1 2 3 4 5 6 7 8 9 10 11 12 13 14 15 16 17 18 19 20 21 22 23 24 25 26
000
FTUS43 KAPX 300127 AAC
TAFPLN
TAF AMD
KPLN 300127Z 3001/3024 24008KT P6SM SCT120
     FM300300 27007KT P6SM VCSH SCT045 BKN100
     FM300500 28005KT P6SM SCT050 BKN120
     FM300900 27004KT P6SM SCT015
     FM301500 29008KT P6SM SCT025=

USA.gov is the U.S. government's official web portal to all federal, state and local government web resources and services.